Terminal Aerodrome Forecast
Issued by NWS Charleston, WV

Current Version | Previous Version | Graphics & Text | Print | Product List | Glossary On
Versions: 1 2 3 4 5 6 7 8 9 10 11 12 13 14 15 16 17 18 19 20
000
FTUS41 KRLX 260539
TAFEKN
TAF
KEKN 260539Z 2606/2706 00000KT P6SM SCT030 BKN050
     FM261600 31004KT P6SM BKN040
     FM270000 00000KT P6SM BKN045=

USA.gov is the U.S. government's official web portal to all federal, state and local government web resources and services.